Time;durP1;ratioP1;P1;durP2;ratioP2;P2;SDS_P1;SDS_P2;PMS_P1;PMS_P2;Temp;Humidity;BMP_temperature;BMP_pressure;BME280_temperature;BME280_humidity;BME280_pressure;Samples;Min_cycle;Max_cycle;Signal;HPM_P1;HPM_P2
2023/03/03 00:02:42;;;;;;;24.27;12.97;;;5.40;99.90;;;;;;10462187;28;20316;-88
2023/03/03 00:07:46;;;;;;;46.23;27.60;;;5.70;99.90;;;;;;10488298;28;20234;-88
2023/03/03 00:12:49;;;;;;;36.43;22.27;;;4.20;99.90;;;;;;10488993;28;20239;-88
2023/03/03 00:17:52;;;;;;;39.47;17.63;;;2.60;99.90;;;;;;10486149;28;20253;-88
2023/03/03 00:22:58;;;;;;;25.70;14.50;;;3.60;99.90;;;;;;10488117;28;20233;-88
2023/03/03 00:28:14;;;;;;;41.97;21.03;;;4.60;99.90;;;;;;10487561;28;20232;-88
2023/03/03 00:33:32;;;;;;;43.70;24.83;;;5.10;99.90;;;;;;10490761;28;20232;-88
2023/03/03 00:38:38;;;;;;;49.83;24.50;;;3.50;99.90;;;;;;10496436;28;20310;-88
2023/03/03 00:43:41;;;;;;;22.93;12.73;;;4.10;99.90;;;;;;10494987;28;20245;-88
2023/03/03 00:48:43;;;;;;;35.63;18.13;;;5.30;99.90;;;;;;10495745;28;20647;-88
2023/03/03 00:53:46;;;;;;;35.00;16.03;;;5.20;99.90;;;;;;10495047;28;20297;-88
2023/03/03 00:58:49;;;;;;;45.50;24.67;;;5.00;99.90;;;;;;10494834;28;20704;-88
2023/03/03 01:03:54;;;;;;;46.47;23.47;;;5.60;99.90;;;;;;10493947;28;20224;-88
2023/03/03 01:08:58;;;;;;;42.03;21.57;;;5.30;99.90;;;;;;10494989;28;20973;-89
2023/03/03 01:14:01;;;;;;;32.03;16.50;;;4.60;99.90;;;;;;10493114;28;20253;-89
2023/03/03 01:19:03;;;;;;;42.23;22.93;;;5.30;99.90;;;;;;10465740;28;20321;-89
2023/03/03 01:24:06;;;;;;;38.13;20.33;;;5.50;99.90;;;;;;10478077;28;20233;-88
2023/03/03 01:29:08;;;;;;;31.57;16.97;;;4.70;99.90;;;;;;10463593;28;20269;-89
2023/03/03 01:34:11;;;;;;;43.73;20.87;;;3.90;99.90;;;;;;10476687;28;20282;-89
2023/03/03 01:39:14;;;;;;;35.57;19.80;;;;;;;;;;10469341;28;20299;-89
2023/03/03 01:44:16;;;;;;;50.03;24.53;;;1.80;99.90;;;;;;10481745;28;20292;-89
2023/03/03 01:49:29;;;;;;;26.80;14.93;;;1.60;99.90;;;;;;10491894;28;20678;-89
2023/03/03 01:54:39;;;;;;;18.33;10.27;;;1.90;99.90;;;;;;10487816;28;20242;-88
2023/03/03 01:59:47;;;;;;;26.13;15.73;;;4.40;99.90;;;;;;10492938;28;20307;-89
2023/03/03 02:04:49;;;;;;;22.57;12.33;;;4.80;99.90;;;;;;10493633;28;20737;-89
2023/03/03 02:09:58;;;;;;;17.73;10.60;;;4.30;99.90;;;;;;10493332;28;20299;-89
2023/03/03 02:15:01;;;;;;;16.30;9.23;;;4.20;99.90;;;;;;10475198;28;20696;-89
2023/03/03 02:20:10;;;;;;;22.10;11.57;;;4.90;99.90;;;;;;10491953;28;20225;-89
2023/03/03 02:25:23;;;;;;;19.80;12.33;;;5.80;99.90;;;;;;10471645;28;20279;-89
2023/03/03 02:30:26;;;;;;;17.20;10.53;;;;;;;;;;10490316;28;20663;-89
2023/03/03 02:35:35;;;;;;;16.10;9.27;;;6.80;99.90;;;;;;10489702;28;20299;-89
2023/03/03 02:40:42;;;;;;;24.10;12.73;;;5.90;99.90;;;;;;10490292;28;20244;-89
2023/03/03 02:45:45;;;;;;;16.23;10.03;;;6.80;99.90;;;;;;10490877;28;20692;-89
2023/03/03 02:50:48;;;;;;;17.00;9.03;;;6.90;99.90;;;;;;10491260;28;20233;-89
2023/03/03 02:55:51;;;;;;;13.30;8.30;;;6.30;99.90;;;;;;10489023;28;20720;-89
2023/03/03 03:00:54;;;;;;;14.70;9.80;;;7.40;99.90;;;;;;10489765;28;20244;-89
2023/03/03 03:05:58;;;;;;;19.83;11.37;;;7.10;99.90;;;;;;10489209;28;20248;-89
2023/03/03 03:11:02;;;;;;;15.90;9.37;;;5.40;95.50;;;;;;10490599;28;20242;-89
2023/03/03 03:16:05;;;;;;;18.03;9.70;;;5.90;99.90;;;;;;10489543;28;20654;-89
2023/03/03 03:21:10;;;;;;;14.27;9.23;;;7.10;99.90;;;;;;10487892;28;20648;-89
2023/03/03 03:26:14;;;;;;;10.83;7.80;;;7.20;99.90;;;;;;10488414;28;20233;-89
2023/03/03 03:31:19;;;;;;;12.90;6.37;;;6.80;99.90;;;;;;10489093;28;20340;-89
2023/03/03 03:36:22;;;;;;;11.93;6.60;;;8.40;99.90;;;;;;10488213;28;20636;-89
2023/03/03 03:41:26;;;;;;;16.07;10.33;;;8.80;99.90;;;;;;10488898;28;20753;-89
2023/03/03 03:46:28;;;;;;;16.43;10.20;;;6.80;90.90;;;;;;10489032;28;20237;-90
2023/03/03 03:51:32;;;;;;;12.37;8.07;;;6.20;97.90;;;;;;10505299;28;20282;-89
2023/03/03 03:56:35;;;;;;;12.87;8.97;;;6.40;99.90;;;;;;10486173;28;20307;-89
2023/03/03 04:01:38;;;;;;;15.03;8.40;;;5.20;99.90;;;;;;10487750;28;20287;-89
2023/03/03 04:06:41;;;;;;;15.73;8.83;;;5.20;99.90;;;;;;10487524;28;20241;-90
2023/03/03 04:11:44;;;;;;;14.13;7.80;;;5.80;99.90;;;;;;10483864;28;20234;-89
2023/03/03 04:16:48;;;;;;;13.67;8.43;;;5.30;99.90;;;;;;10496554;28;20266;-90
2023/03/03 04:21:51;;;;;;;17.07;9.93;;;5.80;99.90;;;;;;10495758;28;20238;-90
2023/03/03 04:26:54;;;;;;;15.23;9.77;;;5.40;99.90;;;;;;10497106;28;20757;-90
2023/03/03 04:31:57;;;;;;;19.73;9.33;;;5.40;99.90;;;;;;10512483;28;20284;-91
2023/03/03 04:37:00;;;;;;;17.03;10.13;;;6.90;99.90;;;;;;10494492;28;20253;-90
2023/03/03 04:42:04;;;;;;;13.77;7.47;;;5.30;99.90;;;;;;10495086;28;20242;-90
2023/03/03 04:47:07;;;;;;;16.47;10.27;;;6.50;99.90;;;;;;10495708;28;20206;-90
2023/03/03 04:52:10;;;;;;;10.10;7.40;;;6.50;97.90;;;;;;10512746;28;20244;-90
2023/03/03 04:57:13;;;;;;;14.27;8.70;;;5.90;99.90;;;;;;10492927;28;20317;-90
2023/03/03 05:02:17;;;;;;;12.57;8.00;;;7.60;99.50;;;;;;10490467;28;20294;-89
2023/03/03 05:07:20;;;;;;;16.13;9.47;;;7.70;99.90;;;;;;10494595;28;20912;-89
2023/03/03 05:12:23;;;;;;;13.10;8.83;;;7.60;99.80;;;;;;10495583;28;20234;-89
2023/03/03 05:17:25;;;;;;;10.23;6.10;;;7.60;99.90;;;;;;10492361;28;20261;-88
2023/03/03 05:22:28;;;;;;;11.27;6.93;;;6.60;99.90;;;;;;10493518;28;20701;-90
2023/03/03 05:27:30;;;;;;;14.47;8.70;;;7.70;99.90;;;;;;10494473;28;20237;-89
2023/03/03 05:32:34;;;;;;;12.17;7.87;;;7.20;98.20;;;;;;10494315;28;20674;-89
2023/03/03 05:37:41;;;;;;;10.93;6.40;;;6.80;99.20;;;;;;10493829;28;20319;-90
2023/03/03 05:42:44;;;;;;;13.33;7.87;;;6.40;99.90;;;;;;10493898;28;20610;-91
2023/03/03 05:47:47;;;;;;;16.73;9.37;;;6.10;99.90;;;;;;10494984;28;20631;-90
2023/03/03 05:52:51;;;;;;;11.97;7.80;;;5.60;99.90;;;;;;10492444;28;20630;-90
2023/03/03 05:57:54;;;;;;;11.57;7.87;;;6.60;99.90;;;;;;10493234;28;20252;-89
2023/03/03 06:02:57;;;;;;;18.03;9.90;;;6.70;99.90;;;;;;10494740;28;20259;-92
2023/03/03 06:08:00;;;;;;;13.73;6.57;;;7.20;86.10;;;;;;10493931;28;20668;-90
2023/03/03 06:13:02;;;;;;;12.50;7.80;;;8.50;78.80;;;;;;10491515;28;20671;-90
2023/03/03 06:18:05;;;;;;;16.83;10.00;;;8.50;76.10;;;;;;10488485;28;20256;-89
2023/03/03 06:23:09;;;;;;;15.03;8.83;;;7.30;78.90;;;;;;10490633;28;20752;-88
2023/03/03 06:28:12;;;;;;;16.23;8.80;;;6.70;90.90;;;;;;10491125;28;20324;-88
2023/03/03 06:33:15;;;;;;;20.27;10.50;;;6.60;89.40;;;;;;10489877;28;20667;-89
2023/03/03 06:38:18;;;;;;;23.53;12.37;;;6.60;90.20;;;;;;10503489;28;20252;-93
2023/03/03 06:43:20;;;;;;;20.20;12.00;;;6.50;90.30;;;;;;10491147;28;20209;-91
2023/03/03 06:48:23;;;;;;;17.67;6.50;;;7.20;88.40;;;;;;10508864;28;20207;-96
2023/03/03 06:53:26;;;;;;;17.77;9.83;;;5.50;99.90;;;;;;10491201;28;20230;-80
2023/03/03 06:58:28;;;;;;;18.47;9.23;;;7.90;97.50;;;;;;10491925;28;20296;-79
2023/03/03 07:03:34;;;;;;;15.60;9.87;;;8.40;89.00;;;;;;10474913;28;20285;-80
2023/03/03 07:08:40;;;;;;;12.03;7.90;;;7.10;80.00;;;;;;10487996;28;20269;-80
2023/03/03 07:13:48;;;;;;;15.07;8.70;;;6.50;91.20;;;;;;10465382;28;20232;-82
2023/03/03 07:18:57;;;;;;;12.93;8.33;;;8.40;81.40;;;;;;10470316;28;20857;-83
2023/03/03 07:24:15;;;;;;;13.23;8.00;;;7.80;82.30;;;;;;10472497;28;20231;-83
2023/03/03 07:29:25;;;;;;;10.83;5.93;;;7.90;95.90;;;;;;10487468;28;21168;-82
2023/03/03 07:34:38;;;;;;;18.07;7.40;;;9.50;99.50;;;;;;10488818;28;20301;-82
2023/03/03 07:39:44;;;;;;;12.80;7.17;;;9.50;94.00;;;;;;10484881;28;20252;-82
2023/03/03 07:44:51;;;;;;;13.00;6.87;;;10.10;97.70;;;;;;10461975;28;20294;-83
2023/03/03 07:49:56;;;;;;;10.63;6.07;;;10.40;97.10;;;;;;10468080;28;20914;-83
2023/03/03 07:55:17;;;;;;;14.70;10.10;;;9.40;99.90;;;;;;10486381;28;20237;-82
2023/03/03 08:00:19;;;;;;;13.77;8.13;;;7.80;96.80;;;;;;10479797;28;20262;-83
2023/03/03 08:05:32;;;;;;;10.87;6.10;;;6.80;99.90;;;;;;10483366;28;20237;-82
2023/03/03 08:10:50;;;;;;;11.17;7.67;;;8.50;99.90;;;;;;10474093;28;20248;-82
2023/03/03 08:16:08;;;;;;;10.07;5.93;;;8.80;99.90;;;;;;10505072;28;20260;-83
2023/03/03 08:21:26;;;;;;;10.57;7.30;;;9.70;99.90;;;;;;10490474;28;20799;-83
2023/03/03 08:26:29;;;;;;;10.97;7.27;;;8.90;99.90;;;;;;10489102;28;20239;-82
2023/03/03 08:31:31;;;;;;;16.33;7.40;;;9.90;99.90;;;;;;10488908;28;20269;-82
2023/03/03 08:36:43;;;;;;;10.40;6.73;;;9.10;99.90;;;;;;10489292;28;20210;-82
2023/03/03 08:41:46;;;;;;;11.93;7.80;;;10.40;99.90;;;;;;10488210;28;20292;-83
2023/03/03 08:46:49;;;;;;;16.20;9.20;;;9.40;99.90;;;;;;10489099;28;20218;-83
2023/03/03 08:51:51;;;;;;;17.43;11.17;;;8.40;99.90;;;;;;10472585;28;20596;-82
2023/03/03 08:56:54;;;;;;;18.13;10.97;;;7.80;99.30;;;;;;10492810;28;20317;-83
2023/03/03 09:01:57;;;;;;;15.80;9.97;;;7.90;99.90;;;;;;10495518;28;20237;-83
2023/03/03 09:06:59;;;;;;;13.00;8.57;;;7.10;99.90;;;;;;10487664;28;20629;-82
2023/03/03 09:12:28;;;;;;;26.13;17.50;;;6.60;99.90;;;;;;10495300;28;20986;-83
2023/03/03 09:17:34;;;;;;;20.53;11.03;;;6.40;99.90;;;;;;10474284;28;20293;-83
2023/03/03 09:22:37;;;;;;;12.33;7.73;;;5.60;99.90;;;;;;10485248;28;20301;-83
2023/03/03 09:27:40;;;;;;;19.40;11.43;;;5.50;99.90;;;;;;10492487;28;20237;-83
2023/03/03 09:32:43;;;;;;;17.60;8.77;;;5.90;99.90;;;;;;10493662;28;20262;-83
2023/03/03 09:37:49;;;;;;;12.73;8.17;;;5.90;99.90;;;;;;10496059;28;20305;-82
2023/03/03 09:43:12;;;;;;;10.70;7.33;;;7.40;99.90;;;;;;10494716;28;20640;-83
2023/03/03 09:48:26;;;;;;;13.33;8.60;;;8.60;99.90;;;;;;10474881;28;21023;-83
2023/03/03 09:53:43;;;;;;;17.67;10.43;;;8.10;99.90;;;;;;10485391;28;20677;-83
2023/03/03 09:59:15;;;;;;;9.53;5.70;;;6.60;99.90;;;;;;10493472;28;20253;-83
2023/03/03 10:04:51;;;;;;;14.10;8.40;;;9.00;99.90;;;;;;10458245;28;20202;-83
2023/03/03 10:10:12;;;;;;;20.43;11.50;;;8.10;99.90;;;;;;10493871;28;20692;-83
2023/03/03 10:15:45;;;;;;;15.80;9.70;;;6.80;99.90;;;;;;10492737;28;20249;-84
2023/03/03 10:20:59;;;;;;;18.03;10.17;;;7.00;99.90;;;;;;10492672;28;20249;-84
2023/03/03 10:26:20;;;;;;;17.17;9.27;;;8.10;99.90;;;;;;10490711;28;20233;-83
2023/03/03 10:31:50;;;;;;;15.33;9.53;;;8.50;99.90;;;;;;10492286;28;20327;-84
2023/03/03 10:37:20;;;;;;;15.77;9.33;;;9.40;99.90;;;;;;10490736;28;20229;-84
2023/03/03 10:42:42;;;;;;;15.20;8.83;;;9.10;99.90;;;;;;10489652;28;20240;-85
2023/03/03 10:48:04;;;;;;;14.00;8.13;;;9.30;99.90;;;;;;10491318;28;20768;-85
2023/03/03 10:53:33;;;;;;;11.67;6.87;;;10.20;99.90;;;;;;10490759;28;20238;-84
2023/03/03 10:58:39;;;;;;;10.33;6.03;;;10.50;99.90;;;;;;10490998;28;20284;-85
2023/03/03 11:04:15;;;;;;;10.60;6.77;;;9.30;99.90;;;;;;10481340;28;20230;-85
2023/03/03 11:09:36;;;;;;;11.80;7.13;;;10.20;99.90;;;;;;10487561;28;20244;-84
2023/03/03 11:14:54;;;;;;;9.00;6.17;;;9.40;99.90;;;;;;10488497;28;20298;-84
2023/03/03 11:20:21;;;;;;;26.57;13.43;;;10.00;99.90;;;;;;10486820;28;20650;-81
2023/03/03 11:25:34;;;;;;;30.90;15.90;;;10.90;86.30;;;;;;10490823;28;20232;-81
2023/03/03 11:30:53;;;;;;;28.70;15.90;;;9.70;83.30;;;;;;10490261;28;20264;-81
2023/03/03 11:36:24;;;;;;;23.00;11.60;;;8.50;94.00;;;;;;10490789;28;20287;-81
2023/03/03 11:41:41;;;;;;;18.27;10.63;;;10.30;90.60;;;;;;10489797;28;20268;-81
2023/03/03 11:46:59;;;;;;;19.53;10.33;;;10.40;87.20;;;;;;10490885;28;20232;-81
2023/03/03 11:52:31;;;;;;;23.23;12.50;;;10.90;84.50;;;;;;10490938;28;20229;-81
2023/03/03 11:58:01;;;;;;;13.53;6.57;;;11.40;82.80;;;;;;10487594;28;20305;-88
2023/03/03 12:03:12;;;;;;;27.10;11.87;;;11.20;64.70;;;;;;10464424;28;20227;-88
2023/03/03 12:08:35;;;;;;;34.77;12.80;;;9.90;82.00;;;;;;10477686;28;20634;-88
2023/03/03 12:13:59;;;;;;;24.10;9.27;;;10.20;80.50;;;;;;10486261;28;20269;-89
2023/03/03 12:19:21;;;;;;;28.57;11.90;;;10.40;81.90;;;;;;10494488;28;20251;-88
2023/03/03 12:24:42;;;;;;;27.57;12.57;;;10.80;91.30;;;;;;10483939;28;20692;-89
2023/03/03 12:30:12;;;;;;;24.97;12.57;;;10.60;91.70;;;;;;10493545;28;20330;-88
2023/03/03 12:35:17;;;;;;;24.47;12.30;;;9.70;96.50;;;;;;10495495;28;20234;-88
2023/03/03 12:40:30;;;;;;;17.87;10.53;;;10.40;83.40;;;;;;10497887;28;20311;-89
2023/03/03 12:45:41;;;;;;;31.70;13.83;;;9.20;96.60;;;;;;10496045;28;20229;-88
2023/03/03 12:51:02;;;;;;;23.00;12.53;;;9.50;93.90;;;;;;10497148;28;20298;-89
2023/03/03 12:56:11;;;;;;;26.63;14.47;;;9.10;97.80;;;;;;10496224;28;20245;-88
2023/03/03 13:01:42;;;;;;;28.30;12.63;;;9.30;97.00;;;;;;10496174;28;20265;-88
2023/03/03 13:07:00;;;;;;;26.67;13.10;;;9.00;97.20;;;;;;10493353;28;20620;-87
2023/03/03 13:12:26;;;;;;;29.87;14.10;;;10.00;99.90;;;;;;10496519;28;20307;-87
2023/03/03 13:17:56;;;;;;;24.03;10.50;;;10.10;94.80;;;;;;10493184;28;20688;-88
2023/03/03 13:23:11;;;;;;;19.70;11.53;;;10.40;99.90;;;;;;10459862;28;20671;-88
2023/03/03 13:28:36;;;;;;;31.30;16.93;;;10.50;98.80;;;;;;10495026;28;20338;-87
2023/03/03 13:33:50;;;;;;;21.23;10.63;;;10.60;99.20;;;;;;10494136;28;20265;-88
2023/03/03 13:38:57;;;;;;;20.33;10.50;;;10.70;99.90;;;;;;10493213;28;20311;-89
2023/03/03 13:44:13;;;;;;;21.63;11.13;;;11.10;97.20;;;;;;10493102;28;20282;-90
2023/03/03 13:49:53;;;;;;;19.87;9.70;;;11.60;96.80;;;;;;10493140;28;20291;-90
2023/03/03 13:55:16;;;;;;;24.40;12.17;;;10.50;99.80;;;;;;10488905;28;20256;-90
2023/03/03 14:00:44;;;;;;;15.93;8.30;;;10.80;99.30;;;;;;10473879;28;20737;-90
2023/03/03 14:05:58;;;;;;;26.80;10.93;;;11.10;99.90;;;;;;10484475;28;20236;-90
2023/03/03 14:11:18;;;;;;;20.93;11.83;;;10.10;99.90;;;;;;10491542;28;20276;-91
2023/03/03 14:16:53;;;;;;;17.83;10.97;;;10.20;99.90;;;;;;10491138;28;20240;-90
2023/03/03 14:22:11;;;;;;;23.33;8.90;;;10.20;99.90;;;;;;10453839;28;20281;-90
2023/03/03 14:27:25;;;;;;;8.17;5.80;;;9.80;99.90;;;;;;10451414;28;20259;-90
2023/03/03 14:32:28;;;;;;;14.33;8.57;;;10.50;99.90;;;;;;10454431;28;20440;-90
2023/03/03 14:37:49;;;;;;;15.47;7.57;;;10.40;99.90;;;;;;10492147;28;20236;-90
2023/03/03 14:42:51;;;;;;;7.53;4.93;;;10.00;99.90;;;;;;10491774;28;20286;-89
2023/03/03 14:47:54;;;;;;;14.10;8.10;;;9.50;99.90;;;;;;10491063;28;20241;-90
2023/03/03 14:53:18;;;;;;;19.80;10.93;;;10.50;99.90;;;;;;10490826;28;20241;-89
2023/03/03 14:58:33;;;;;;;19.13;11.53;;;10.10;99.90;;;;;;10489027;28;20253;-90
2023/03/03 15:03:36;;;;;;;19.73;10.40;;;10.60;87.50;;;;;;10489578;28;20702;-89
2023/03/03 15:08:41;;;;;;;14.43;8.77;;;10.90;90.60;;;;;;10491252;28;20268;-90
2023/03/03 15:13:43;;;;;;;17.00;10.20;;;10.20;87.70;;;;;;10486013;28;20238;-93
2023/03/03 15:19:01;;;;;;;14.37;9.23;;;10.30;89.10;;;;;;10488673;28;20284;-92
2023/03/03 15:24:23;;;;;;;14.67;8.27;;;9.50;94.10;;;;;;10487943;28;20642;-92
2023/03/03 15:29:30;;;;;;;13.77;8.00;;;10.60;96.70;;;;;;10487915;28;20739;-91
2023/03/03 15:34:42;;;;;;;15.77;8.80;;;10.70;93.40;;;;;;10490810;28;20229;-93
2023/03/03 15:39:50;;;;;;;16.40;9.63;;;10.00;97.00;;;;;;10488913;28;20763;-93
2023/03/03 15:44:58;;;;;;;15.23;9.40;;;9.80;96.50;;;;;;10472774;28;20266;-94
2023/03/03 15:50:39;;;;;;;15.50;9.57;;;8.60;97.30;;;;;;10491010;28;20627;-93
2023/03/03 15:55:44;;;;;;;14.30;7.23;;;8.80;95.50;;;;;;10362641;28;20273;-92
2023/03/03 16:01:09;;;;;;;15.33;5.57;;;9.20;99.90;;;;;;10017308;28;9999854;-92
2023/03/03 16:06:39;;;;;;;17.13;9.67;;;9.90;99.90;;;;;;10357053;28;20310;-92
2023/03/03 16:12:14;;;;;;;15.90;8.90;;;10.10;99.00;;;;;;10364704;28;20382;-91
2023/03/03 16:17:22;;;;;;;12.50;7.80;;;9.50;99.90;;;;;;10344805;28;20262;-92
2023/03/03 16:22:56;;;;;;;16.77;10.63;;;9.40;98.80;;;;;;10365375;28;20297;-91
2023/03/03 16:28:21;;;;;;;17.40;9.50;;;9.20;95.50;;;;;;10463161;28;20370;-90
2023/03/03 16:33:29;;;;;;;12.77;7.33;;;9.70;99.90;;;;;;10483385;28;20222;-90
2023/03/03 16:38:42;;;;;;;12.30;8.23;;;10.30;99.90;;;;;;10495607;28;20279;-92
2023/03/03 16:44:19;;;;;;;20.67;10.33;;;10.30;99.90;;;;;;10493503;28;20246;-94
2023/03/03 16:49:38;;;;;;;13.83;8.70;;;10.10;94.30;;;;;;10496355;28;20891;-92
2023/03/03 16:55:10;;;;;;;14.50;8.60;;;10.60;97.30;;;;;;10495970;28;20294;-92
2023/03/03 17:00:18;;;;;;;20.43;11.90;;;10.60;95.50;;;;;;10486766;28;20814;-92
2023/03/03 17:05:40;;;;;;;13.43;8.40;;;9.60;91.40;;;;;;10495040;28;20233;-94
2023/03/03 17:10:59;;;;;;;14.93;8.07;;;9.30;99.90;;;;;;10496909;28;20210;-92
2023/03/03 17:16:16;;;;;;;17.97;11.47;;;10.10;99.90;;;;;;10496833;28;20233;-92
2023/03/03 17:21:34;;;;;;;14.60;9.40;;;9.50;97.00;;;;;;10495442;28;20719;-93
2023/03/03 17:27:11;;;;;;;14.17;11.13;;;9.50;95.80;;;;;;10495148;28;20756;-91
2023/03/03 17:32:29;;;;;;;27.20;16.67;;;8.60;81.90;;;;;;10494595;28;20257;-88
2023/03/03 17:37:43;;;;;;;27.67;16.03;;;;;;;;;;10494775;28;20751;-89
2023/03/03 17:43:12;;;;;;;34.87;19.90;;;2.20;99.90;;;;;;10492260;28;20279;-89
2023/03/03 17:48:21;;;;;;;30.93;18.50;;;;;;;;;;10324721;28;20227;-86
2023/03/03 17:53:42;;;;;;;29.13;18.03;;;;;;;;;;10324483;28;20235;-86
2023/03/03 17:59:00;;;;;;;31.33;19.00;;;;;;;;;;10324316;28;20258;-86
2023/03/03 18:04:25;;;;;;;34.93;21.63;;;0.90;99.90;;;;;;10283920;28;20256;-86
2023/03/03 18:09:39;;;;;;;33.57;20.70;;;0.90;99.90;;;;;;9974832;28;10000270;-87
2023/03/03 18:15:04;;;;;;;36.97;22.60;;;0.80;99.90;;;;;;10319180;28;20244;-86
2023/03/03 18:20:09;;;;;;;36.20;19.20;;;0.70;99.90;;;;;;10316331;28;20314;-86
2023/03/03 18:25:15;;;;;;;36.60;20.47;;;1.00;99.90;;;;;;10443068;28;20291;-85
2023/03/03 18:30:21;;;;;;;29.37;16.90;;;0.80;99.90;;;;;;10480867;28;20672;-85
2023/03/03 18:35:37;;;;;;;26.93;16.23;;;0.80;99.90;;;;;;10489313;28;20634;-85
2023/03/03 18:41:20;;;;;;;33.53;18.67;;;0.80;99.90;;;;;;10488261;28;20245;-85
2023/03/03 18:46:22;;;;;;;7.83;4.20;;;0.70;99.90;;;;;;10436203;28;20821;-86
2023/03/03 18:51:37;;;;;;;8.57;4.90;;;1.00;99.90;;;;;;10487058;28;20234;-86
2023/03/03 18:56:52;;;;;;;16.73;9.40;;;4.50;99.90;;;;;;10487224;28;20644;-86
2023/03/03 19:02:12;;;;;;;14.33;7.97;;;6.00;99.90;;;;;;10486740;28;20355;-87
2023/03/03 19:07:27;;;;;;;17.17;9.03;;;8.00;99.90;;;;;;10487350;28;20276;-86
2023/03/03 19:12:44;;;;;;;12.23;6.80;;;8.40;99.90;;;;;;10486544;28;20280;-86
2023/03/03 19:17:48;;;;;;;13.10;7.20;;;9.00;99.90;;;;;;10485173;28;20243;-86
2023/03/03 19:23:04;;;;;;;6.00;3.33;;;9.20;99.90;;;;;;10487030;28;20708;-86
2023/03/03 19:28:19;;;;;;;12.17;7.53;;;10.20;99.90;;;;;;10483208;28;20264;-86
2023/03/03 19:33:39;;;;;;;15.17;7.83;;;10.90;99.90;;;;;;10488257;28;20769;-87
2023/03/03 19:39:16;;;;;;;12.73;7.23;;;10.80;99.90;;;;;;10486721;28;20237;-88
2023/03/03 19:44:30;;;;;;;17.03;7.90;;;11.60;97.60;;;;;;10485684;28;20244;-88
2023/03/03 19:50:05;;;;;;;10.13;6.37;;;11.50;99.90;;;;;;10486192;28;20232;-88
2023/03/03 19:55:21;;;;;;;14.73;8.43;;;10.90;99.90;;;;;;10484848;28;20294;-87
2023/03/03 20:00:37;;;;;;;13.40;8.37;;;11.40;99.60;;;;;;10487455;28;20284;-87
2023/03/03 20:05:51;;;;;;;5.20;2.63;;;11.00;97.70;;;;;;10487127;28;20286;-87
2023/03/03 20:11:15;;;;;;;6.90;4.87;;;11.80;99.90;;;;;;10481495;28;20461;-87
2023/03/03 20:16:32;;;;;;;11.47;6.13;;;12.00;99.90;;;;;;10474273;28;20233;-86
2023/03/03 20:21:42;;;;;;;8.47;4.97;;;11.30;99.90;;;;;;10487134;28;20480;-89
2023/03/03 20:27:04;;;;;;;12.07;6.70;;;11.80;99.90;;;;;;10485832;28;20245;-88
2023/03/03 20:32:31;;;;;;;8.93;5.33;;;12.00;99.90;;;;;;10472890;28;20371;-89
2023/03/03 20:37:48;;;;;;;18.07;4.97;;;12.20;96.30;;;;;;10483180;28;20228;-86
2023/03/03 20:43:23;;;;;;;17.50;8.70;;;12.10;99.70;;;;;;10486271;28;20305;-87
2023/03/03 20:48:44;;;;;;;14.03;7.10;;;12.00;99.90;;;;;;10486513;28;20235;-87
2023/03/03 20:54:10;;;;;;;8.53;4.77;;;11.20;99.90;;;;;;10493271;28;20769;-86
2023/03/03 20:59:30;;;;;;;11.17;6.20;;;12.00;97.80;;;;;;10489843;28;20236;-88
2023/03/03 21:04:35;;;;;;;13.07;7.30;;;12.20;95.00;;;;;;10493034;28;20225;-89
2023/03/03 21:09:38;;;;;;;8.07;4.73;;;12.30;92.50;;;;;;10507265;28;20283;-88
2023/03/03 21:14:41;;;;;;;4.77;2.73;;;11.70;98.40;;;;;;10492639;28;20230;-88
2023/03/03 21:19:43;;;;;;;12.23;6.63;;;12.10;98.10;;;;;;10492352;28;20256;-88
2023/03/03 21:24:47;;;;;;;9.97;6.43;;;11.40;99.00;;;;;;10489857;28;20278;-86
2023/03/03 21:30:06;;;;;;;10.13;6.00;;;11.80;95.70;;;;;;10489170;28;20324;-86
2023/03/03 21:35:10;;;;;;;21.10;11.37;;;11.90;95.60;;;;;;10473348;28;20253;-86
2023/03/03 21:40:29;;;;;;;13.03;6.83;;;11.60;94.40;;;;;;10477107;28;20706;-86
2023/03/03 21:45:31;;;;;;;13.13;8.03;;;11.40;99.90;;;;;;10490341;28;20230;-87
2023/03/03 21:50:34;;;;;;;10.13;7.17;;;11.50;97.70;;;;;;10489322;28;20275;-86
2023/03/03 21:55:37;;;;;;;11.50;5.67;;;12.00;97.00;;;;;;10488334;28;20228;-86
2023/03/03 22:00:39;;;;;;;14.50;9.13;;;12.20;97.10;;;;;;10490282;28;20332;-87
2023/03/03 22:05:42;;;;;;;9.10;4.33;;;11.40;94.40;;;;;;10491060;28;20301;-87
2023/03/03 22:10:49;;;;;;;15.67;9.10;;;11.70;98.40;;;;;;10490542;28;20241;-87
2023/03/03 22:15:53;;;;;;;11.00;5.40;;;11.60;95.50;;;;;;10488380;28;20684;-87
2023/03/03 22:20:56;;;;;;;15.57;8.57;;;11.20;98.20;;;;;;10489586;28;20250;-87
2023/03/03 22:26:01;;;;;;;11.53;7.33;;;11.30;97.70;;;;;;10490245;28;20305;-87
2023/03/03 22:31:03;;;;;;;8.83;4.97;;;11.80;96.10;;;;;;10489333;28;21088;-87
2023/03/03 22:36:07;;;;;;;13.80;8.33;;;12.30;97.80;;;;;;10488654;28;20233;-87
2023/03/03 22:41:10;;;;;;;18.97;11.43;;;12.00;94.10;;;;;;10488927;28;20253;-87
2023/03/03 22:46:13;;;;;;;8.97;5.33;;;11.30;94.70;;;;;;10487698;28;20692;-87
2023/03/03 22:51:17;;;;;;;12.57;7.20;;;11.70;99.10;;;;;;10488507;28;20306;-87
2023/03/03 22:56:19;;;;;;;11.67;6.30;;;11.50;97.90;;;;;;10489898;28;20275;-87
2023/03/03 23:01:22;;;;;;;9.70;5.87;;;11.70;96.20;;;;;;10487278;28;20248;-87
2023/03/03 23:06:24;;;;;;;14.80;8.40;;;12.00;97.20;;;;;;10503191;28;20232;-87
2023/03/03 23:11:27;;;;;;;19.10;11.10;;;12.30;95.00;;;;;;10485742;28;20259;-87
2023/03/03 23:16:30;;;;;;;18.93;11.70;;;11.70;90.70;;;;;;10488324;28;20244;-88
2023/03/03 23:21:32;;;;;;;11.57;7.90;;;11.20;91.40;;;;;;10488934;28;20287;-87
2023/03/03 23:26:35;;;;;;;9.87;5.87;;;11.10;94.80;;;;;;10473561;28;20234;-87
2023/03/03 23:31:38;;;;;;;7.40;4.10;;;11.00;98.20;;;;;;10487722;28;20257;-88
2023/03/03 23:36:40;;;;;;;6.90;5.17;;;11.50;99.30;;;;;;10487479;28;20302;-87
2023/03/03 23:41:44;;;;;;;10.00;6.30;;;12.10;97.20;;;;;;10488410;28;20684;-87
2023/03/03 23:46:46;;;;;;;10.07;6.20;;;12.00;92.50;;;;;;10487342;28;20259;-87
2023/03/03 23:51:49;;;;;;;5.80;4.63;;;11.30;96.90;;;;;;10486668;28;20306;-86
2023/03/03 23:56:51;;;;;;;7.53;4.47;;;12.10;97.70;;;;;;10488611;28;20277;-86
